Time;durP1;ratioP1;P1;durP2;ratioP2;P2;SDS_P1;SDS_P2;PMS_P1;PMS_P2;Temp;Humidity;BMP_temperature;BMP_pressure;BME280_temperature;BME280_humidity;BME280_pressure;Samples;Min_cycle;Max_cycle;Signal;HPM_P1;HPM_P2
2021/10/24 00:01:54;;;;;;;;;;;20.00;57.50;;;;;;5018788;28;19925;-49
2021/10/24 00:04:21;;;;;;;;;;;20.00;57.60;;;;;;5014223;28;19926;-49
2021/10/24 00:06:48;;;;;;;;;;;20.00;57.60;;;;;;5010890;28;20448;-48
2021/10/24 00:09:15;;;;;;;;;;;20.00;57.50;;;;;;5007991;28;20266;-51
2021/10/24 00:11:42;;;;;;;;;;;20.00;57.50;;;;;;5017581;28;19925;-50
2021/10/24 00:14:09;;;;;;;;;;;20.00;57.50;;;;;;5018716;28;19976;-48
2021/10/24 00:16:36;;;;;;;;;;;20.00;57.60;;;;;;5018494;28;19961;-49
2021/10/24 00:19:04;;;;;;;;;;;20.00;57.60;;;;;;5004150;28;19934;-47
2021/10/24 00:21:31;;;;;;;;;;;20.00;57.60;;;;;;5013716;28;20435;-50
2021/10/24 00:23:58;;;;;;;;;;;20.00;57.50;;;;;;4999384;28;19929;-48
2021/10/24 00:26:25;;;;;;;;;;;20.00;57.60;;;;;;4998311;28;19994;-51
2021/10/24 00:28:55;;;;;;;;;;;20.00;57.60;;;;;;4998449;28;20012;-48
2021/10/24 00:31:22;;;;;;;;;;;20.00;57.60;;;;;;5015444;28;19967;-48
2021/10/24 00:33:49;;;;;;;;;;;20.00;57.60;;;;;;4997625;28;19926;-52
2021/10/24 00:36:20;;;;;;;;;;;20.00;57.60;;;;;;5016166;28;19952;-50
2021/10/24 00:38:47;;;;;;;;;;;20.00;57.60;;;;;;5015178;28;20313;-47
2021/10/24 00:41:15;;;;;;;;;;;20.00;57.60;;;;;;5000372;28;19930;-48
2021/10/24 00:43:42;;;;;;;;;;;20.00;57.60;;;;;;4998771;28;20386;-50
2021/10/24 00:46:12;;;;;;;;;;;20.00;57.60;;;;;;5010902;28;19926;-48
2021/10/24 00:48:59;;;;;;;;;;;20.00;57.60;;;;;;5015081;28;19933;-48
2021/10/24 00:51:27;;;;;;;;;;;20.00;57.60;;;;;;5013528;28;20400;-48
2021/10/24 00:53:54;;;;;;;;;;;20.00;57.60;;;;;;5014428;28;19937;-48
2021/10/24 00:56:21;;;;;;;;;;;20.00;57.60;;;;;;5014658;28;19996;-48
2021/10/24 00:58:50;;;;;;;;;;;20.00;57.60;;;;;;5014344;28;19940;-48
2021/10/24 01:01:18;;;;;;;;;;;20.00;57.60;;;;;;5003411;28;20382;-49
2021/10/24 01:03:45;;;;;;;;;;;20.00;57.60;;;;;;5008767;28;19926;-49
2021/10/24 01:06:12;;;;;;;;;;;20.00;57.60;;;;;;5014695;28;19984;-48
2021/10/24 01:08:40;;;;;;;;;;;20.00;57.60;;;;;;5014604;28;19979;-50
2021/10/24 01:11:06;;;;;;;;;;;20.00;57.60;;;;;;5014389;28;19933;-48
2021/10/24 01:13:34;;;;;;;;;;;20.00;57.60;;;;;;5014153;28;19974;-49
2021/10/24 01:16:09;;;;;;;;;;;20.00;57.60;;;;;;5012732;28;19932;-49
2021/10/24 01:18:36;;;;;;;;;;;20.00;57.60;;;;;;5014263;28;19932;-49
2021/10/24 01:21:03;;;;;;;;;;;20.00;57.60;;;;;;5013067;28;19925;-49
2021/10/24 01:23:30;;;;;;;;;;;20.00;57.60;;;;;;5014336;28;19953;-48
2021/10/24 01:25:58;;;;;;;;;;;20.00;57.70;;;;;;5014148;28;20376;-47
2021/10/24 01:28:25;;;;;;;;;;;20.00;57.60;;;;;;5011793;28;19926;-48
2021/10/24 01:30:54;;;;;;;;;;;20.00;57.60;;;;;;4998510;28;20392;-50
2021/10/24 01:33:22;;;;;;;;;;;20.00;57.60;;;;;;4997484;28;19983;-50
2021/10/24 01:35:59;;;;;;;;;;;20.00;57.60;;;;;;4997164;28;20360;-51
2021/10/24 01:38:27;;;;;;;;;;;20.00;57.60;;;;;;4997923;28;19925;-51
2021/10/24 01:40:55;;;;;;;;;;;20.00;57.60;;;;;;5013333;28;19984;-50
2021/10/24 01:43:23;;;;;;;;;;;20.00;57.60;;;;;;5013497;28;19952;-49
2021/10/24 01:45:50;;;;;;;;;;;20.00;57.60;;;;;;5013848;28;19932;-50
2021/10/24 01:48:18;;;;;;;;;;;20.00;57.60;;;;;;5011699;28;19929;-47
2021/10/24 01:50:45;;;;;;;;;;;20.00;57.60;;;;;;4997173;28;19926;-51
2021/10/24 01:53:32;;;;;;;;;;;20.00;57.70;;;;;;5013518;28;19925;-52
2021/10/24 01:55:59;;;;;;;;;;;20.00;57.70;;;;;;5012489;28;19926;-52
2021/10/24 01:58:26;;;;;;;;;;;19.90;57.60;;;;;;4996884;28;19976;-55
2021/10/24 02:00:54;;;;;;;;;;;20.00;57.70;;;;;;5013281;28;20329;-52
2021/10/24 02:03:21;;;;;;;;;;;19.90;57.60;;;;;;4998401;28;19926;-52
2021/10/24 02:05:48;;;;;;;;;;;20.00;57.70;;;;;;5011287;28;20393;-52
2021/10/24 02:08:15;;;;;;;;;;;20.00;57.70;;;;;;5013224;28;19980;-51
2021/10/24 02:10:43;;;;;;;;;;;19.90;57.60;;;;;;5001468;28;19926;-49
2021/10/24 02:13:10;;;;;;;;;;;20.00;57.70;;;;;;4997111;28;19980;-53
2021/10/24 02:15:37;;;;;;;;;;;19.90;57.60;;;;;;5007263;28;20403;-49
2021/10/24 02:18:06;;;;;;;;;;;19.90;57.60;;;;;;5002925;28;19972;-49
2021/10/24 02:20:34;;;;;;;;;;;19.90;57.60;;;;;;4996959;28;20378;-52
2021/10/24 02:23:02;;;;;;;;;;;19.90;57.60;;;;;;4997215;28;19926;-51
2021/10/24 02:25:29;;;;;;;;;;;19.90;57.60;;;;;;5003843;28;20377;-53
2021/10/24 02:27:56;;;;;;;;;;;19.90;57.60;;;;;;5007682;28;19930;-53
2021/10/24 02:30:23;;;;;;;;;;;19.90;57.60;;;;;;5001056;28;20301;-49
2021/10/24 02:32:50;;;;;;;;;;;19.90;57.60;;;;;;5012861;28;19925;-53
2021/10/24 02:35:19;;;;;;;;;;;19.90;57.60;;;;;;5013232;28;19926;-52
2021/10/24 02:37:46;;;;;;;;;;;19.90;57.80;;;;;;5011970;28;20299;-52
2021/10/24 02:40:14;;;;;;;;;;;19.90;57.60;;;;;;5013144;28;19934;-49
2021/10/24 02:42:42;;;;;;;;;;;19.90;57.60;;;;;;5011824;28;19969;-52
2021/10/24 02:45:10;;;;;;;;;;;19.90;57.60;;;;;;5012310;28;19952;-50
2021/10/24 02:47:39;;;;;;;;;;;19.90;57.60;;;;;;5012868;28;19926;-47
2021/10/24 02:50:06;;;;;;;;;;;19.90;57.60;;;;;;5012376;28;19925;-50
2021/10/24 02:52:33;;;;;;;;;;;19.90;57.60;;;;;;4995560;28;19930;-52
2021/10/24 02:55:00;;;;;;;;;;;19.90;57.60;;;;;;4994448;28;19992;-53
2021/10/24 02:57:28;;;;;;;;;;;19.90;57.60;;;;;;5012940;28;19984;-51
2021/10/24 02:59:55;;;;;;;;;;;19.90;57.60;;;;;;5011251;28;19932;-49
2021/10/24 03:02:22;;;;;;;;;;;19.90;57.60;;;;;;4997772;28;19925;-47
2021/10/24 03:04:50;;;;;;;;;;;19.90;57.60;;;;;;4996613;28;19995;-47
2021/10/24 03:07:17;;;;;;;;;;;19.90;57.60;;;;;;4996322;28;19926;-48
2021/10/24 03:09:44;;;;;;;;;;;19.90;57.60;;;;;;5008649;28;19980;-51
2021/10/24 03:12:11;;;;;;;;;;;19.90;57.60;;;;;;5001619;28;19926;-49
2021/10/24 03:14:38;;;;;;;;;;;19.90;57.60;;;;;;5006525;28;19933;-50
2021/10/24 03:17:05;;;;;;;;;;;19.90;57.60;;;;;;5007708;28;19982;-47
2021/10/24 03:19:32;;;;;;;;;;;19.90;57.60;;;;;;4996240;28;19976;-47
2021/10/24 03:22:00;;;;;;;;;;;19.90;57.60;;;;;;4996464;28;19934;-48
2021/10/24 03:24:27;;;;;;;;;;;19.90;57.60;;;;;;4997111;28;20414;-48
2021/10/24 03:26:54;;;;;;;;;;;19.90;58.10;;;;;;5001443;28;20424;-50
2021/10/24 03:29:21;;;;;;;;;;;19.90;57.60;;;;;;5011039;28;19984;-53
2021/10/24 03:31:48;;;;;;;;;;;19.90;57.60;;;;;;5010221;28;19969;-48
2021/10/24 03:34:15;;;;;;;;;;;19.90;57.60;;;;;;5012434;28;19939;-48
2021/10/24 03:36:42;;;;;;;;;;;19.90;57.60;;;;;;5012427;28;19937;-49
2021/10/24 03:39:09;;;;;;;;;;;19.90;57.60;;;;;;5011372;28;19926;-49
2021/10/24 03:41:36;;;;;;;;;;;19.90;57.60;;;;;;4995194;28;19926;-49
2021/10/24 03:44:03;;;;;;;;;;;19.90;57.60;;;;;;4995091;28;19926;-47
2021/10/24 03:46:31;;;;;;;;;;;19.90;57.60;;;;;;5012758;28;19948;-49
2021/10/24 03:48:59;;;;;;;;;;;19.90;57.60;;;;;;5012280;28;19933;-50
2021/10/24 03:51:26;;;;;;;;;;;19.90;57.60;;;;;;4995406;28;20271;-51
2021/10/24 03:53:53;;;;;;;;;;;19.90;57.60;;;;;;4993408;28;19933;-49
2021/10/24 03:56:20;;;;;;;;;;;19.90;57.60;;;;;;5012898;28;19926;-51
2021/10/24 03:58:47;;;;;;;;;;;19.90;57.60;;;;;;5001351;28;19976;-49
2021/10/24 04:01:14;;;;;;;;;;;19.90;57.60;;;;;;5013244;28;19926;-51
2021/10/24 04:03:41;;;;;;;;;;;19.90;57.60;;;;;;5015562;28;19932;-49
2021/10/24 04:06:08;;;;;;;;;;;19.90;57.50;;;;;;5003976;28;19929;-50
2021/10/24 04:08:35;;;;;;;;;;;19.90;57.50;;;;;;5009306;28;19926;-51
2021/10/24 04:11:02;;;;;;;;;;;19.90;57.60;;;;;;5005798;28;19984;-50
2021/10/24 04:13:29;;;;;;;;;;;19.90;57.50;;;;;;4999527;28;19930;-52
2021/10/24 04:15:56;;;;;;;;;;;19.90;57.60;;;;;;5002593;28;19941;-49
2021/10/24 04:18:23;;;;;;;;;;;19.90;57.50;;;;;;5008703;28;19926;-51
2021/10/24 04:20:50;;;;;;;;;;;19.90;57.60;;;;;;5005839;28;19949;-50
2021/10/24 04:23:17;;;;;;;;;;;19.90;57.60;;;;;;5015585;28;20336;-51
2021/10/24 04:25:44;;;;;;;;;;;19.90;57.50;;;;;;5014359;28;19965;-52
2021/10/24 04:28:12;;;;;;;;;;;19.90;57.50;;;;;;5013946;28;19926;-47
2021/10/24 04:30:39;;;;;;;;;;;19.90;57.50;;;;;;5015201;28;19925;-49
2021/10/24 04:33:06;;;;;;;;;;;19.90;57.50;;;;;;5014145;28;20275;-53
2021/10/24 04:35:33;;;;;;;;;;;19.90;57.50;;;;;;4997949;28;19925;-52
2021/10/24 04:38:00;;;;;;;;;;;19.90;57.50;;;;;;5015570;28;19973;-48
2021/10/24 04:40:27;;;;;;;;;;;19.90;57.50;;;;;;4997652;28;19925;-53
2021/10/24 04:42:54;;;;;;;;;;;19.90;57.50;;;;;;5015052;28;20382;-50
2021/10/24 04:45:21;;;;;;;;;;;19.90;57.50;;;;;;5014283;28;19972;-48
2021/10/24 04:47:50;;;;;;;;;;;19.90;57.50;;;;;;5014332;28;20293;-51
2021/10/24 04:50:23;;;;;;;;;;;19.90;57.50;;;;;;5015044;28;20021;-51
2021/10/24 04:52:51;;;;;;;;;;;19.90;57.50;;;;;;4999214;28;19933;-52
2021/10/24 04:55:18;;;;;;;;;;;19.90;57.50;;;;;;5013096;28;19930;-50
2021/10/24 04:57:47;;;;;;;;;;;19.90;57.50;;;;;;4999829;28;21392;-52
2021/10/24 05:00:14;;;;;;;;;;;19.90;57.50;;;;;;5011594;28;19926;-48
2021/10/24 05:02:41;;;;;;;;;;;19.90;57.50;;;;;;5014682;28;19973;-49
2021/10/24 05:05:09;;;;;;;;;;;19.90;57.50;;;;;;5014585;28;19930;-53
2021/10/24 05:07:37;;;;;;;;;;;19.90;57.50;;;;;;5013853;28;19926;-50
2021/10/24 05:10:04;;;;;;;;;;;19.90;57.50;;;;;;5004853;28;19925;-52
2021/10/24 05:12:31;;;;;;;;;;;19.90;57.50;;;;;;5007277;28;19944;-52
2021/10/24 05:14:58;;;;;;;;;;;19.90;57.50;;;;;;5014242;28;20393;-50
2021/10/24 05:17:25;;;;;;;;;;;19.90;57.50;;;;;;5008401;28;20417;-53
2021/10/24 05:19:52;;;;;;;;;;;19.90;57.50;;;;;;5004124;28;19929;-52
2021/10/24 05:22:20;;;;;;;;;;;19.90;57.50;;;;;;5014511;28;19929;-49
2021/10/24 05:24:48;;;;;;;;;;;19.90;57.50;;;;;;5012968;28;19932;-52
2021/10/24 05:27:15;;;;;;;;;;;19.90;57.50;;;;;;5013274;28;19972;-49
2021/10/24 05:29:42;;;;;;;;;;;19.90;57.50;;;;;;5014261;28;20356;-51
2021/10/24 05:32:09;;;;;;;;;;;19.90;57.50;;;;;;5012865;28;20350;-53
2021/10/24 05:34:36;;;;;;;;;;;19.90;57.50;;;;;;5013833;28;20347;-50
2021/10/24 05:37:03;;;;;;;;;;;19.90;57.50;;;;;;4998261;28;19929;-54
2021/10/24 05:39:30;;;;;;;;;;;19.90;57.50;;;;;;5028223;28;19925;-52
2021/10/24 05:41:57;;;;;;;;;;;19.90;57.50;;;;;;5014299;28;19979;-53
2021/10/24 05:44:24;;;;;;;;;;;19.90;57.50;;;;;;5014061;28;19937;-52
2021/10/24 05:46:53;;;;;;;;;;;19.90;57.50;;;;;;5014056;28;19965;-53
2021/10/24 05:49:20;;;;;;;;;;;19.90;57.50;;;;;;5014073;28;20288;-56
2021/10/24 05:51:48;;;;;;;;;;;19.90;57.40;;;;;;4999043;28;19930;-49
2021/10/24 05:54:15;;;;;;;;;;;19.90;57.40;;;;;;4997333;28;20298;-52
2021/10/24 05:56:42;;;;;;;;;;;19.90;57.40;;;;;;5009640;28;19975;-50
2021/10/24 05:59:09;;;;;;;;;;;19.90;57.40;;;;;;5013715;28;19926;-50
2021/10/24 06:01:36;;;;;;;;;;;19.90;57.40;;;;;;5002466;28;19983;-50
2021/10/24 06:04:03;;;;;;;;;;;19.90;57.40;;;;;;4997982;28;19929;-52
2021/10/24 06:06:30;;;;;;;;;;;19.90;57.40;;;;;;4997199;28;19926;-51
2021/10/24 06:08:59;;;;;;;;;;;19.90;57.30;;;;;;4997370;28;20331;-53
2021/10/24 06:11:32;;;;;;;;;;;19.90;57.30;;;;;;5004907;28;19979;-52
2021/10/24 06:13:59;;;;;;;;;;;19.90;57.30;;;;;;5012752;28;20385;-52
2021/10/24 06:16:27;;;;;;;;;;;19.90;57.30;;;;;;5013370;28;20345;-51
2021/10/24 06:18:54;;;;;;;;;;;19.90;57.30;;;;;;5002689;28;19926;-52
2021/10/24 06:21:21;;;;;;;;;;;19.90;57.30;;;;;;5013434;28;19926;-51
2021/10/24 06:23:48;;;;;;;;;;;19.90;57.30;;;;;;5011917;28;19976;-52
2021/10/24 06:26:15;;;;;;;;;;;20.00;57.30;;;;;;5013132;28;19988;-51
2021/10/24 06:28:42;;;;;;;;;;;20.00;57.30;;;;;;5012870;28;19980;-49
2021/10/24 06:31:09;;;;;;;;;;;20.00;57.30;;;;;;5011819;28;19925;-49
2021/10/24 06:33:36;;;;;;;;;;;20.00;57.30;;;;;;5012765;28;19930;-51
2021/10/24 06:36:03;;;;;;;;;;;20.00;57.20;;;;;;5012654;28;19925;-50
2021/10/24 06:38:32;;;;;;;;;;;20.00;57.20;;;;;;5012690;28;19926;-52
2021/10/24 06:40:59;;;;;;;;;;;20.00;57.20;;;;;;4995600;28;19926;-48
2021/10/24 06:43:26;;;;;;;;;;;20.00;57.10;;;;;;4995374;28;19933;-48
2021/10/24 06:45:53;;;;;;;;;;;20.00;57.10;;;;;;4996691;28;20333;-49
2021/10/24 06:48:20;;;;;;;;;;;20.00;57.10;;;;;;4996517;28;20398;-48
2021/10/24 06:50:47;;;;;;;;;;;20.00;57.10;;;;;;5011526;28;20000;-48
2021/10/24 06:53:17;;;;;;;;;;;20.00;57.10;;;;;;5011432;28;19925;-49
2021/10/24 06:55:44;;;;;;;;;;;20.00;57.10;;;;;;5012365;28;19976;-48
2021/10/24 06:58:11;;;;;;;;;;;20.00;57.10;;;;;;5012686;28;20011;-51
2021/10/24 07:00:38;;;;;;;;;;;20.00;57.00;;;;;;5012794;28;19934;-50
2021/10/24 07:03:05;;;;;;;;;;;20.00;57.00;;;;;;5012890;28;19996;-49
2021/10/24 07:05:32;;;;;;;;;;;20.10;57.10;;;;;;5003125;28;19925;-50
2021/10/24 07:07:59;;;;;;;;;;;20.10;57.10;;;;;;5004611;28;19925;-50
2021/10/24 07:10:26;;;;;;;;;;;20.00;56.90;;;;;;5011925;28;19980;-49
2021/10/24 07:12:53;;;;;;;;;;;20.10;57.00;;;;;;5012684;28;19926;-48
2021/10/24 07:15:21;;;;;;;;;;;20.10;57.00;;;;;;5012211;28;19976;-50
2021/10/24 07:17:48;;;;;;;;;;;20.10;57.00;;;;;;5012231;28;19929;-48
2021/10/24 07:20:15;;;;;;;;;;;20.10;57.00;;;;;;5012629;28;19961;-52
2021/10/24 07:22:43;;;;;;;;;;;20.10;57.00;;;;;;5012305;28;19972;-47
2021/10/24 07:25:11;;;;;;;;;;;20.10;57.00;;;;;;5012640;28;19925;-48
2021/10/24 07:27:38;;;;;;;;;;;20.10;56.90;;;;;;5010975;28;20013;-47
2021/10/24 07:30:07;;;;;;;;;;;20.10;56.90;;;;;;5006120;28;19925;-47
2021/10/24 07:32:35;;;;;;;;;;;20.10;56.90;;;;;;4999439;28;19969;-50
2021/10/24 07:35:03;;;;;;;;;;;20.10;56.90;;;;;;5016138;28;19929;-47
2021/10/24 07:37:30;;;;;;;;;;;20.10;56.90;;;;;;5015235;28;19965;-52
2021/10/24 07:39:57;;;;;;;;;;;20.10;56.90;;;;;;4999051;28;19980;-48
2021/10/24 07:42:25;;;;;;;;;;;20.10;56.90;;;;;;4999378;28;20385;-49
2021/10/24 07:44:52;;;;;;;;;;;20.10;56.90;;;;;;5016013;28;19968;-46
2021/10/24 07:47:19;;;;;;;;;;;20.10;57.50;;;;;;5001214;28;19930;-50
2021/10/24 07:49:46;;;;;;;;;;;20.10;56.90;;;;;;5014260;28;19952;-48
2021/10/24 07:52:14;;;;;;;;;;;20.10;57.50;;;;;;5002957;28;19926;-48
2021/10/24 07:54:40;;;;;;;;;;;20.10;56.90;;;;;;4999461;28;20337;-47
2021/10/24 07:57:08;;;;;;;;;;;20.10;56.90;;;;;;5010759;28;19926;-48
2021/10/24 07:59:34;;;;;;;;;;;20.10;56.80;;;;;;5005441;28;20334;-48
2021/10/24 08:02:02;;;;;;;;;;;20.10;56.80;;;;;;5008171;28;19929;-49
2021/10/24 08:04:33;;;;;;;;;;;20.10;56.80;;;;;;5014479;28;20060;-51
2021/10/24 08:07:01;;;;;;;;;;;20.10;56.80;;;;;;5015611;28;19975;-51
2021/10/24 08:09:28;;;;;;;;;;;20.10;56.80;;;;;;5015568;28;20018;-49
2021/10/24 08:11:55;;;;;;;;;;;20.10;56.80;;;;;;5015349;28;19925;-50
2021/10/24 08:14:22;;;;;;;;;;;20.10;56.80;;;;;;5015439;28;19932;-48
2021/10/24 08:16:50;;;;;;;;;;;20.10;56.70;;;;;;5015501;28;19938;-51
2021/10/24 08:19:17;;;;;;;;;;;20.10;56.80;;;;;;5015310;28;20382;-51
2021/10/24 08:21:45;;;;;;;;;;;20.10;56.70;;;;;;5012894;28;19938;-47
2021/10/24 08:24:12;;;;;;;;;;;20.10;56.70;;;;;;4999257;28;20424;-50
2021/10/24 08:26:39;;;;;;;;;;;20.20;56.80;;;;;;5005096;28;19987;-48
2021/10/24 08:29:07;;;;;;;;;;;20.20;56.80;;;;;;4999019;28;19925;-51
2021/10/24 08:31:34;;;;;;;;;;;20.20;56.70;;;;;;4998360;28;20385;-47
2021/10/24 08:34:01;;;;;;;;;;;20.20;56.70;;;;;;5015061;28;19940;-50
2021/10/24 08:36:28;;;;;;;;;;;20.20;56.70;;;;;;4998162;28;19988;-48
2021/10/24 08:38:57;;;;;;;;;;;20.20;56.70;;;;;;5015225;28;19930;-48
2021/10/24 08:41:29;;;;;;;;;;;20.20;56.70;;;;;;4997668;28;19926;-49
2021/10/24 08:43:57;;;;;;;;;;;20.20;56.70;;;;;;4997741;28;19972;-49
2021/10/24 08:46:24;;;;;;;;;;;20.20;57.20;;;;;;5014253;28;19933;-49
2021/10/24 08:48:52;;;;;;;;;;;20.20;56.60;;;;;;4999293;28;19926;-47
2021/10/24 08:51:19;;;;;;;;;;;20.20;56.60;;;;;;4999081;28;19929;-51
2021/10/24 08:53:47;;;;;;;;;;;20.20;56.60;;;;;;4998985;28;19929;-50
2021/10/24 08:56:15;;;;;;;;;;;20.20;56.50;;;;;;4998403;28;20375;-47
2021/10/24 08:58:42;;;;;;;;;;;20.20;56.50;;;;;;5008570;28;19925;-49
2021/10/24 09:01:09;;;;;;;;;;;20.20;56.40;;;;;;5014523;28;20008;-48
2021/10/24 09:03:37;;;;;;;;;;;20.20;56.40;;;;;;5015387;28;19956;-50
2021/10/24 09:06:06;;;;;;;;;;;20.20;56.40;;;;;;5014487;28;19926;-52
2021/10/24 09:08:35;;;;;;;;;;;20.20;56.30;;;;;;5013321;28;19979;-53
2021/10/24 09:11:03;;;;;;;;;;;20.20;56.30;;;;;;5014323;28;20440;-53
2021/10/24 09:13:31;;;;;;;;;;;20.20;56.30;;;;;;5014360;28;19930;-49
2021/10/24 09:16:06;;;;;;;;;;;20.20;56.20;;;;;;5045802;28;20447;-52
2021/10/24 09:18:35;;;;;;;;;;;20.20;56.80;;;;;;5014121;28;19926;-48
2021/10/24 09:21:17;;;;;;;;;;;20.20;56.20;;;;;;5014425;28;20321;-52
2021/10/24 09:23:45;;;;;;;;;;;20.30;56.30;;;;;;5021869;28;19925;-49
2021/10/24 09:26:21;;;;;;;;;;;20.30;56.20;;;;;;5014091;28;19987;-48
2021/10/24 09:29:03;;;;;;;;;;;20.30;56.20;;;;;;5014053;28;20278;-53
2021/10/24 09:31:31;;;;;;;;;;;20.30;56.10;;;;;;5014075;28;19987;-54
2021/10/24 09:34:24;;;;;;;;;;;20.30;56.10;;;;;;5008185;28;20029;-54
2021/10/24 09:36:52;;;;;;;;;;;20.30;56.10;;;;;;4995298;28;19961;-51
2021/10/24 09:39:20;;;;;;;;;;;20.30;56.00;;;;;;4997666;28;20024;-53
2021/10/24 09:41:48;;;;;;;;;;;20.30;56.00;;;;;;4998109;28;20334;-51
2021/10/24 09:44:16;;;;;;;;;;;20.30;55.90;;;;;;4997617;28;19925;-51
2021/10/24 09:46:56;;;;;;;;;;;20.30;55.90;;;;;;5003135;28;19925;-50
2021/10/24 09:49:24;;;;;;;;;;;20.30;55.80;;;;;;5013791;28;19961;-52
2021/10/24 09:51:52;;;;;;;;;;;20.30;55.80;;;;;;5013847;28;19991;-52
2021/10/24 09:54:21;;;;;;;;;;;20.30;55.70;;;;;;5013425;28;19933;-51
2021/10/24 09:56:48;;;;;;;;;;;20.30;55.70;;;;;;5010176;28;19930;-50
2021/10/24 09:59:16;;;;;;;;;;;20.30;55.70;;;;;;5000899;28;19961;-52
2021/10/24 10:01:47;;;;;;;;;;;20.30;55.60;;;;;;5011541;28;20444;-50
2021/10/24 10:04:14;;;;;;;;;;;20.30;55.50;;;;;;4997612;28;20381;-50
2021/10/24 10:06:44;;;;;;;;;;;20.30;55.50;;;;;;5012451;28;20324;-52
2021/10/24 10:09:12;;;;;;;;;;;20.30;55.50;;;;;;5012296;28;19926;-49
2021/10/24 10:11:39;;;;;;;;;;;20.30;55.50;;;;;;5013335;28;19968;-51
2021/10/24 10:14:09;;;;;;;;;;;20.30;55.40;;;;;;5013350;28;19929;-53
2021/10/24 10:16:38;;;;;;;;;;;20.30;55.40;;;;;;5013561;28;20008;-54
2021/10/24 10:19:06;;;;;;;;;;;20.30;55.40;;;;;;5013174;28;19939;-52
2021/10/24 10:21:38;;;;;;;;;;;20.30;55.30;;;;;;5012261;28;20009;-51
2021/10/24 10:24:06;;;;;;;;;;;20.30;55.40;;;;;;4996163;28;19984;-52
2021/10/24 10:26:42;;;;;;;;;;;20.30;55.30;;;;;;5013031;28;19926;-53
2021/10/24 10:29:14;;;;;;;;;;;20.30;55.30;;;;;;4995974;28;20061;-52
2021/10/24 10:32:01;;;;;;;;;;;20.30;55.30;;;;;;5012837;28;19957;-51
2021/10/24 10:34:28;;;;;;;;;;;20.30;55.30;;;;;;5012937;28;19925;-48
2021/10/24 10:36:56;;;;;;;;;;;20.30;55.30;;;;;;4996628;28;19926;-52
2021/10/24 10:39:36;;;;;;;;;;;20.30;55.30;;;;;;5044089;28;19925;-51
2021/10/24 10:42:27;;;;;;;;;;;20.30;55.30;;;;;;4995520;28;20325;-52
2021/10/24 10:45:14;;;;;;;;;;;20.40;55.30;;;;;;4996272;28;20312;-52
2021/10/24 10:47:48;;;;;;;;;;;20.30;55.20;;;;;;4996481;28;19933;-52
2021/10/24 10:50:39;;;;;;;;;;;20.30;55.20;;;;;;4996875;28;20321;-49
2021/10/24 10:53:07;;;;;;;;;;;20.30;55.10;;;;;;4991575;28;20293;-53
2021/10/24 10:56:09;;;;;;;;;;;20.40;55.20;;;;;;4997299;28;19925;-52
2021/10/24 10:58:38;;;;;;;;;;;20.40;55.20;;;;;;5013705;28;19980;-47
2021/10/24 11:01:24;;;;;;;;;;;20.40;55.20;;;;;;5012968;28;20350;-51
2021/10/24 11:03:59;;;;;;;;;;;20.40;55.20;;;;;;5012259;28;19932;-53
2021/10/24 11:06:26;;;;;;;;;;;20.40;55.20;;;;;;5012950;28;19925;-52
2021/10/24 11:08:56;;;;;;;;;;;20.40;55.20;;;;;;5007595;28;19929;-54
2021/10/24 11:11:44;;;;;;;;;;;20.40;55.20;;;;;;5001173;28;19948;-51
2021/10/24 11:14:14;;;;;;;;;;;20.40;56.10;;;;;;5005207;28;19969;-52
2021/10/24 11:16:45;;;;;;;;;;;20.40;55.80;;;;;;5010125;28;20748;-53
2021/10/24 11:19:28;;;;;;;;;;;20.40;55.60;;;;;;5011109;28;20399;-51
2021/10/24 11:21:59;;;;;;;;;;;20.40;55.50;;;;;;5010925;28;19933;-54
2021/10/24 11:24:27;;;;;;;;;;;20.50;55.50;;;;;;5012335;28;19929;-52
2021/10/24 11:26:57;;;;;;;;;;;20.40;55.50;;;;;;5006331;28;19930;-51
2021/10/24 11:29:24;;;;;;;;;;;20.40;55.50;;;;;;4996029;28;19929;-49
2021/10/24 11:32:09;;;;;;;;;;;20.40;55.50;;;;;;5000149;28;19953;-50
2021/10/24 11:34:36;;;;;;;;;;;20.40;55.50;;;;;;5011905;28;19964;-51
2021/10/24 11:37:03;;;;;;;;;;;20.40;55.50;;;;;;5012435;28;20285;-52
2021/10/24 11:39:30;;;;;;;;;;;20.40;55.50;;;;;;5008276;28;19972;-51
2021/10/24 11:42:08;;;;;;;;;;;20.40;55.40;;;;;;4999518;28;20329;-53
2021/10/24 11:44:35;;;;;;;;;;;20.50;55.50;;;;;;5008546;28;20016;-53
2021/10/24 11:47:08;;;;;;;;;;;20.40;55.30;;;;;;4998336;28;20001;-50
2021/10/24 11:49:51;;;;;;;;;;;20.40;55.30;;;;;;5011961;28;20377;-52
2021/10/24 11:52:25;;;;;;;;;;;20.50;55.30;;;;;;5011353;28;19925;-50
2021/10/24 11:55:05;;;;;;;;;;;20.50;55.30;;;;;;5011624;28;19930;-52
2021/10/24 12:00:28;;;;;;;;;;;20.50;55.30;;;;;;5012183;28;19925;-53
2021/10/24 12:02:55;;;;;;;;;;;20.50;55.30;;;;;;5005456;28;19926;-50
2021/10/24 12:05:26;;;;;;;;;;;20.50;55.30;;;;;;5000526;28;20284;-50
2021/10/24 12:07:53;;;;;;;;;;;20.50;55.30;;;;;;5011582;28;19973;-57
2021/10/24 12:10:33;;;;;;;;;;;20.50;55.30;;;;;;5007821;28;19934;-51
2021/10/24 12:13:02;;;;;;;;;;;20.50;55.20;;;;;;5001411;28;19930;-49
2021/10/24 12:15:39;;;;;;;;;;;20.50;55.30;;;;;;5001340;28;19965;-52
2021/10/24 12:18:12;;;;;;;;;;;20.50;55.30;;;;;;5006831;28;19926;-52
2021/10/24 12:20:53;;;;;;;;;;;20.50;55.30;;;;;;5006261;28;19926;-47
2021/10/24 12:23:20;;;;;;;;;;;20.50;55.30;;;;;;5006199;28;19991;-47
2021/10/24 12:25:51;;;;;;;;;;;20.50;55.30;;;;;;5009688;28;20045;-49
2021/10/24 12:28:26;;;;;;;;;;;20.40;55.30;;;;;;4998491;28;20639;-51
2021/10/24 12:30:54;;;;;;;;;;;20.50;55.30;;;;;;5001955;28;19926;-47
2021/10/24 12:33:30;;;;;;;;;;;20.50;55.30;;;;;;5014029;28;20408;-50
2021/10/24 12:35:59;;;;;;;;;;;20.50;55.20;;;;;;5014373;28;19926;-46
2021/10/24 12:38:46;;;;;;;;;;;20.50;55.10;;;;;;5011360;28;20013;-49
2021/10/24 12:41:13;;;;;;;;;;;20.50;55.10;;;;;;4998134;28;20377;-50
2021/10/24 12:43:47;;;;;;;;;;;20.50;55.10;;;;;;5000636;28;19951;-53
2021/10/24 12:46:15;;;;;;;;;;;20.50;55.10;;;;;;5009983;28;19926;-49
2021/10/24 12:48:44;;;;;;;;;;;20.50;55.10;;;;;;4998926;28;20441;-49
2021/10/24 12:51:25;;;;;;;;;;;20.50;55.10;;;;;;4998675;28;19952;-48
2021/10/24 12:53:59;;;;;;;;;;;20.50;55.10;;;;;;5002074;28;19968;-48
2021/10/24 12:56:27;;;;;;;;;;;20.50;55.10;;;;;;5013608;28;20020;-53
2021/10/24 12:58:54;;;;;;;;;;;20.50;55.10;;;;;;5014560;28;19926;-50
2021/10/24 13:01:22;;;;;;;;;;;20.50;55.10;;;;;;5014578;28;20386;-48
2021/10/24 13:03:49;;;;;;;;;;;20.50;55.10;;;;;;5013444;28;19932;-52
2021/10/24 13:06:16;;;;;;;;;;;20.50;55.10;;;;;;4998063;28;19925;-50
2021/10/24 13:08:43;;;;;;;;;;;20.50;55.00;;;;;;5013726;28;20040;-51
2021/10/24 13:11:13;;;;;;;;;;;20.50;55.00;;;;;;5013893;28;20017;-51
2021/10/24 13:13:41;;;;;;;;;;;20.50;55.00;;;;;;5007098;28;19933;-55
2021/10/24 13:16:08;;;;;;;;;;;20.50;55.00;;;;;;5001213;28;20463;-49
2021/10/24 13:18:36;;;;;;;;;;;20.50;54.90;;;;;;5013675;28;19926;-50
2021/10/24 13:21:09;;;;;;;;;;;20.50;55.00;;;;;;4998426;28;19972;-52
2021/10/24 13:23:36;;;;;;;;;;;20.50;54.90;;;;;;5011970;28;19975;-53
2021/10/24 13:26:04;;;;;;;;;;;20.50;54.90;;;;;;5014015;28;19932;-47
2021/10/24 13:28:31;;;;;;;;;;;20.50;55.00;;;;;;5012065;28;19976;-51
2021/10/24 13:30:59;;;;;;;;;;;20.50;55.60;;;;;;5012027;28;19925;-53
2021/10/24 13:33:26;;;;;;;;;;;20.50;55.00;;;;;;5012067;28;19933;-53
2021/10/24 13:35:53;;;;;;;;;;;20.50;55.00;;;;;;5010968;28;20016;-54
2021/10/24 13:38:20;;;;;;;;;;;20.50;54.90;;;;;;5012243;28;19929;-54
2021/10/24 13:40:48;;;;;;;;;;;20.50;55.00;;;;;;5012064;28;20352;-49
2021/10/24 13:43:16;;;;;;;;;;;20.50;55.00;;;;;;5012254;28;19980;-49
2021/10/24 13:45:43;;;;;;;;;;;20.50;55.00;;;;;;5013141;28;19929;-49
2021/10/24 13:48:10;;;;;;;;;;;20.50;55.00;;;;;;5012626;28;19925;-50
2021/10/24 13:50:37;;;;;;;;;;;20.50;55.00;;;;;;5012896;28;19926;-48
2021/10/24 13:53:04;;;;;;;;;;;20.50;55.00;;;;;;5044828;28;19926;-52
2021/10/24 13:55:31;;;;;;;;;;;20.50;55.10;;;;;;5008827;28;19944;-50
2021/10/24 13:57:58;;;;;;;;;;;20.50;55.10;;;;;;5010135;28;19933;-48
2021/10/24 14:00:25;;;;;;;;;;;20.50;55.10;;;;;;5012723;28;19930;-50
2021/10/24 14:02:55;;;;;;;;;;;20.50;55.20;;;;;;5013253;28;20348;-51
2021/10/24 14:05:22;;;;;;;;;;;20.50;55.20;;;;;;5012087;28;19980;-52
2021/10/24 14:07:49;;;;;;;;;;;20.50;55.20;;;;;;5007784;28;20369;-49
2021/10/24 14:10:16;;;;;;;;;;;20.50;55.20;;;;;;5013133;28;19961;-50
2021/10/24 14:12:43;;;;;;;;;;;20.50;55.20;;;;;;4996404;28;20329;-51
2021/10/24 14:15:10;;;;;;;;;;;20.50;55.20;;;;;;5013392;28;20270;-49
2021/10/24 14:17:37;;;;;;;;;;;20.50;55.20;;;;;;4996619;28;20386;-51
2021/10/24 14:20:05;;;;;;;;;;;20.50;55.20;;;;;;5012654;28;19925;-50
2021/10/24 14:22:32;;;;;;;;;;;20.50;55.20;;;;;;4998410;28;19953;-49
2021/10/24 14:24:59;;;;;;;;;;;20.50;55.20;;;;;;4996960;28;19953;-53
2021/10/24 14:27:27;;;;;;;;;;;20.50;55.20;;;;;;5009355;28;19930;-50
2021/10/24 14:29:54;;;;;;;;;;;20.50;55.30;;;;;;4999944;28;20049;-52